< < Back
Terminal Aerodrome Forecast


Current Version              Previous Versions:   1  2  3  4  5  6  7  8  9  

Terminal Aerodrome Forecast

226
FTUS44 KMOB 061128
TAFPNS
TAF
KPNS 061128Z 0612/0712 35007KT P6SM SCT250=

Latest METAR

557
SAUS70 KWBC 062000 RRF
MTRPNS
METAR KPNS 061953Z 31007G17KT 10SM CLR 24/06 A2996 RMK AO2 SLP146
T02440061


USA.gov is the U.S. government's official web portal to all federal, state and local government web resources and services.